F/V Berriz Patxiku — ECES — position and weather

sailwx.info

Track history (hours):
 
Tides and Currents Weather Stations Pressure Air Temp Water Temp Dewpoint Dewpoint Depression Visibility Wind Speed Wind Dir Waves Ship Positions

F/V Berriz Patxiku

Last reported at 2016-Jul-19 23:11 UTC. Time now 2016-Jul-26 10:13 UTC.
Position N 44°08' W 001°41'.

Length 30 m.

Type: Fishing. MMSI: 224106260.

Date/timePositionNaut miles runAvg speedWind from/ knotsBaromVisibWave heightAir tempDewpointWater temp
2016-Jul-19 23:11N 44°08' W 001°41'0 0.2
2016-Jul-19 22:33N 44°08' W 001°41'15 7.4
2016-Jul-19 20:33N 43°55' W 001°49'9 8.8
2016-Jul-19 19:33N 43°47' W 001°54'9 8.9
2016-Jul-19 18:33N 43°39' W 001°59'9 8.5
2016-Jul-19 17:33N 43°31' W 002°04'8 8.3
2016-Jul-19 16:33N 43°23' W 002°09'5 5.4
2016-Jul-19 15:33N 43°18' W 002°12'0 0.0
2016-Jul-19 14:33N 43°18' W 002°12'25 4.1
2016-Jul-19 08:29N 43°41' W 001°59'1010.4
2016-Jul-19 07:33N 43°51' W 001°54'23 5.4
2016-Jul-19 03:21N 44°11' W 001°41'1 0.7
2016-Jul-19 02:31N 44°12' W 001°41'6 4.1
2016-Jul-19 01:09N 44°13' W 001°49'1 1.3
2016-Jul-19 00:31N 44°13' W 001°48'2 1.2
2016-Jul-18 22:33N 44°12' W 001°44'  
Track history (hours):
 
Tides and Currents Weather Stations Pressure Air Temp Water Temp Dewpoint Dewpoint Depression Visibility Wind Speed Wind Dir Waves Ship Positions

F/V Berriz Patxiku

Last reported at 2016-Jul-19 23:11 UTC. Time now 2016-Jul-26 10:13 UTC.
Position N 44°08' W 001°41'.

Length 30 m.

Type: Fishing. MMSI: 224106260.

Date/timePositionNaut miles runAvg speedWind from/ knotsBaromVisibWave heightAir tempDewpointWater temp
2016-Jul-19 23:11N 44°08' W 001°41'0 0.2
2016-Jul-19 22:33N 44°08' W 001°41'15 7.4
2016-Jul-19 20:33N 43°55' W 001°49'9 8.8
2016-Jul-19 19:33N 43°47' W 001°54'9 8.9
2016-Jul-19 18:33N 43°39' W 001°59'9 8.5
2016-Jul-19 17:33N 43°31' W 002°04'8 8.3
2016-Jul-19 16:33N 43°23' W 002°09'5 5.4
2016-Jul-19 15:33N 43°18' W 002°12'0 0.0
2016-Jul-19 14:33N 43°18' W 002°12'25 4.1
2016-Jul-19 08:29N 43°41' W 001°59'1010.4
2016-Jul-19 07:33N 43°51' W 001°54'23 5.4
2016-Jul-19 03:21N 44°11' W 001°41'1 0.7
2016-Jul-19 02:31N 44°12' W 001°41'6 4.1
2016-Jul-19 01:09N 44°13' W 001°49'1 1.3
2016-Jul-19 00:31N 44°13' W 001°48'2 1.2
2016-Jul-18 22:33N 44°12' W 001°44'  

Dump ship's entire track history